createdAt,value
2024-05-09T00:00:35.816Z,26.23
2024-05-09T00:03:10.500Z,27.80
2024-05-09T00:05:40.103Z,28.63
2024-05-09T00:08:07.158Z,28.65
2024-05-09T00:10:37.442Z,28.05
2024-05-09T00:13:07.205Z,27.23
2024-05-09T00:15:35.039Z,28.08
2024-05-09T00:18:03.126Z,25.97
2024-05-09T00:20:37.527Z,24.23
2024-05-09T00:23:07.997Z,21.88
2024-05-09T00:25:35.433Z,16.08
2024-05-09T00:28:02.459Z,18.48
2024-05-09T00:30:34.345Z,20.77
2024-05-09T00:33:04.867Z,21.55
2024-05-09T00:35:32.392Z,21.63
2024-05-09T00:37:59.716Z,20.77
2024-05-09T00:40:37.211Z,19.30
2024-05-09T00:43:06.843Z,19.13
2024-05-09T00:45:36.342Z,23.88
2024-05-09T00:48:08.584Z,22.77
2024-05-09T00:50:40.487Z,22.75
2024-05-09T00:53:09.936Z,20.55
2024-05-09T00:55:38.048Z,24.33
2024-05-09T00:58:05.210Z,24.77
2024-05-09T01:00:38.440Z,25.90
2024-05-09T01:03:08.269Z,27.90
2024-05-09T01:05:35.728Z,25.88
2024-05-09T01:08:03.165Z,25.77
2024-05-09T01:10:34.506Z,24.95
2024-05-09T01:13:06.101Z,24.58
2024-05-09T01:15:34.181Z,28.42
2024-05-09T01:18:04.042Z,24.45
2024-05-09T01:20:39.958Z,28.93
2024-05-09T01:23:10.187Z,23.27
2024-05-09T01:25:37.334Z,22.48
2024-05-09T01:28:04.174Z,19.08
2024-05-09T01:30:35.380Z,16.55
2024-05-09T01:33:09.073Z,13.83
2024-05-09T01:35:38.787Z,13.73
2024-05-09T01:38:05.944Z,15.98
2024-05-09T01:40:37.586Z,17.90
2024-05-09T01:43:07.375Z,14.15
2024-05-09T01:45:34.191Z,16.87
2024-05-09T01:48:01.451Z,14.27
2024-05-09T01:50:37.875Z,15.85
2024-05-09T01:53:08.966Z,14.73
2024-05-09T01:55:35.704Z,16.80
2024-05-09T01:58:02.302Z,15.73
2024-05-09T02:00:37.375Z,14.35
2024-05-09T02:03:10.213Z,15.88
2024-05-09T02:05:37.772Z,14.90
2024-05-09T02:08:05.526Z,14.88
2024-05-09T02:10:33.277Z,13.60
2024-05-09T02:13:00.353Z,12.82
2024-05-09T02:15:26.935Z,16.52
2024-05-09T02:17:53.747Z,14.88
2024-05-09T02:20:30.132Z,13.25
2024-05-09T02:23:04.257Z,11.73
2024-05-09T02:25:31.615Z,12.63
2024-05-09T02:27:58.280Z,12.38
2024-05-09T02:30:34.928Z,12.88
2024-05-09T02:33:06.383Z,17.88
2024-05-09T02:35:33.606Z,25.53
2024-05-09T02:38:00.522Z,15.93
2024-05-09T02:40:35.613Z,19.48
2024-05-09T02:43:05.687Z,15.82
2024-05-09T02:45:32.465Z,17.77
2024-05-09T02:47:59.552Z,16.13
2024-05-09T02:50:34.155Z,13.70
2024-05-09T02:53:05.427Z,17.35
2024-05-09T02:55:32.213Z,31.98
2024-05-09T02:57:58.855Z,27.90
2024-05-09T03:00:34.477Z,24.80
2024-05-09T03:03:08.159Z,25.52
2024-05-09T03:05:35.894Z,37.80
2024-05-09T03:08:02.701Z,19.25
2024-05-09T03:10:35.330Z,20.33
2024-05-09T03:13:15.321Z,17.73
2024-05-09T03:15:43.641Z,14.82
2024-05-09T03:18:11.508Z,17.45
2024-05-09T03:20:39.162Z,17.58
2024-05-09T03:23:08.144Z,19.08
2024-05-09T03:25:35.958Z,15.63
2024-05-09T03:28:02.668Z,21.05
2024-05-09T03:30:36.681Z,16.02
2024-05-09T03:33:13.389Z,15.30
2024-05-09T03:35:41.114Z,20.98
2024-05-09T03:38:07.899Z,19.03
2024-05-09T03:40:34.502Z,17.00
2024-05-09T03:43:01.123Z,22.98
2024-05-09T03:45:27.775Z,21.40
2024-05-09T03:47:54.592Z,22.05
2024-05-09T03:50:29.573Z,22.27
2024-05-09T03:53:00.818Z,17.83
2024-05-09T03:55:27.660Z,25.38
2024-05-09T03:57:54.263Z,24.27
2024-05-09T04:00:30.477Z,17.00
2024-05-09T04:03:02.880Z,21.10
2024-05-09T04:05:30.773Z,27.23
2024-05-09T04:07:57.774Z,21.08
2024-05-09T04:10:31.343Z,18.98
2024-05-09T04:13:00.609Z,18.10
2024-05-09T04:15:27.244Z,17.03
2024-05-09T04:17:54.135Z,21.85
2024-05-09T04:20:32.836Z,17.80
2024-05-09T04:23:05.842Z,18.08
2024-05-09T04:25:32.721Z,19.77
2024-05-09T04:27:59.421Z,18.73
2024-05-09T04:30:34.804Z,18.38
2024-05-09T04:33:06.414Z,20.83
2024-05-09T04:35:34.038Z,18.20
2024-05-09T04:38:00.876Z,20.80
2024-05-09T04:40:33.231Z,21.97
2024-05-09T04:43:06.631Z,25.13
2024-05-09T04:45:33.638Z,22.80
2024-05-09T04:48:00.815Z,20.67
2024-05-09T04:50:35.708Z,21.02
2024-05-09T04:53:06.552Z,22.93
2024-05-09T04:55:33.948Z,20.02
2024-05-09T04:58:01.092Z,19.98
2024-05-09T05:00:35.510Z,21.45
2024-05-09T05:03:07.166Z,21.52
2024-05-09T05:05:37.821Z,22.23
2024-05-09T05:08:05.011Z,23.15
2024-05-09T05:10:36.079Z,23.77
2024-05-09T05:13:30.466Z,23.40
2024-05-09T05:15:58.219Z,23.60
2024-05-09T05:18:26.863Z,22.77
2024-05-09T05:20:55.509Z,21.90
2024-05-09T05:23:23.250Z,21.23
2024-05-09T05:25:52.799Z,23.90
2024-05-09T05:28:20.119Z,24.00
2024-05-09T05:30:46.835Z,27.27
2024-05-09T05:33:14.913Z,22.38
2024-05-09T05:35:42.383Z,23.73
2024-05-09T05:38:10.164Z,24.00
2024-05-09T05:40:38.640Z,24.17
2024-05-09T05:43:10.421Z,24.30
2024-05-09T05:45:37.894Z,26.63
2024-05-09T05:48:06.328Z,26.25
2024-05-09T05:50:36.696Z,27.60
2024-05-09T05:53:09.334Z,28.80
2024-05-09T05:55:40.016Z,28.00
2024-05-09T05:58:10.881Z,31.55
2024-05-09T06:00:39.835Z,26.35
2024-05-09T06:03:09.294Z,30.10
2024-05-09T06:05:37.316Z,29.30
2024-05-09T06:08:04.586Z,30.50
2024-05-09T06:10:37.983Z,30.33
2024-05-09T06:13:07.454Z,29.65
2024-05-09T06:15:34.239Z,30.63
2024-05-09T06:18:01.220Z,28.77
2024-05-09T06:20:35.462Z,29.17
2024-05-09T06:23:05.817Z,30.50
2024-05-09T06:25:32.667Z,32.35
2024-05-09T06:28:00.642Z,30.38
2024-05-09T06:30:36.606Z,29.77
2024-05-09T06:33:07.831Z,28.93
2024-05-09T06:35:35.147Z,29.15
2024-05-09T06:38:02.161Z,30.08
2024-05-09T06:40:36.802Z,29.60
2024-05-09T06:43:13.760Z,31.05
2024-05-09T06:45:40.903Z,26.77
2024-05-09T06:48:09.287Z,27.80
2024-05-09T06:50:38.322Z,27.88
2024-05-09T06:53:06.604Z,26.88
2024-05-09T06:55:33.312Z,26.40
2024-05-09T06:57:59.983Z,25.17
2024-05-09T07:00:34.804Z,25.05
2024-05-09T07:03:09.307Z,25.15
2024-05-09T07:05:36.451Z,23.77
2024-05-09T07:08:04.315Z,24.58
2024-05-09T07:10:35.048Z,22.93
2024-05-09T07:13:02.704Z,23.90
2024-05-09T07:15:29.260Z,22.15
2024-05-09T07:17:56.118Z,22.45
2024-05-09T07:20:31.883Z,22.92
2024-05-09T07:23:02.578Z,18.97
2024-05-09T07:25:29.529Z,19.95
2024-05-09T07:27:56.212Z,20.48
2024-05-09T07:30:27.833Z,20.45
2024-05-09T07:33:00.184Z,19.40
2024-05-09T07:35:27.265Z,18.00
2024-05-09T07:37:54.128Z,21.20
2024-05-09T07:40:31.548Z,24.00
2024-05-09T07:43:06.763Z,23.38
2024-05-09T07:52:23.288Z,21.67
2024-05-09T07:53:38.751Z,19.40
2024-05-09T07:56:07.501Z,20.25
2024-05-09T07:58:34.788Z,20.77
2024-05-09T08:01:04.088Z,21.80
2024-05-09T08:03:31.445Z,19.90
2024-05-09T08:05:58.128Z,21.15
2024-05-09T08:08:24.861Z,20.83
2024-05-09T08:10:51.982Z,19.45
2024-05-09T08:13:18.779Z,19.87
2024-05-09T08:15:45.722Z,20.35
2024-05-09T08:18:12.748Z,20.17
2024-05-09T08:20:40.231Z,20.05
2024-05-09T08:23:07.535Z,19.30
2024-05-09T08:25:34.156Z,18.70
2024-05-09T08:28:00.871Z,20.77
2024-05-09T08:30:33.680Z,18.00
2024-05-09T08:33:04.516Z,20.75
2024-05-09T08:35:31.781Z,19.98
2024-05-09T08:37:58.638Z,20.40
2024-05-09T08:40:32.926Z,19.13
2024-05-09T08:43:03.067Z,20.90
2024-05-09T08:45:31.313Z,19.92
2024-05-09T08:47:59.649Z,20.73
2024-05-09T08:50:32.488Z,21.83
2024-05-09T08:53:05.552Z,18.45
2024-05-09T08:55:33.522Z,18.95
2024-05-09T08:58:03.391Z,17.23
2024-05-09T09:00:36.784Z,16.08
2024-05-09T09:03:09.108Z,16.20
2024-05-09T09:05:38.824Z,15.93
2024-05-09T09:08:08.059Z,14.80
2024-05-09T09:10:35.646Z,14.88
2024-05-09T09:13:04.893Z,14.93
2024-05-09T09:15:32.902Z,13.13
2024-05-09T09:18:01.249Z,14.18
2024-05-09T09:20:35.730Z,15.93
2024-05-09T09:23:04.623Z,16.42
2024-05-09T09:25:31.927Z,14.05
2024-05-09T09:27:59.202Z,14.20
2024-05-09T09:30:36.326Z,13.73
2024-05-09T09:33:05.970Z,14.10
2024-05-09T09:35:33.013Z,12.35
2024-05-09T09:38:03.209Z,12.23
2024-05-09T09:40:37.582Z,11.03
2024-05-09T09:43:19.180Z,13.50
2024-05-09T09:45:46.947Z,12.07
2024-05-09T09:48:15.323Z,12.25
2024-05-09T09:50:42.452Z,13.65
2024-05-09T09:53:10.001Z,13.13
2024-05-09T09:55:37.886Z,14.43
2024-05-09T09:58:05.877Z,15.38
2024-05-09T10:00:34.302Z,14.35
2024-05-09T10:03:01.977Z,13.52
2024-05-09T10:05:29.795Z,13.67
2024-05-09T10:07:58.498Z,11.57
2024-05-09T10:10:32.006Z,13.38
2024-05-09T10:13:06.526Z,12.30
2024-05-09T10:16:07.707Z,12.80
2024-05-09T10:18:38.099Z,14.77
2024-05-09T10:21:19.097Z,14.05
2024-05-09T10:23:59.762Z,11.88
2024-05-09T10:26:38.989Z,12.05
2024-05-09T10:29:16.211Z,10.70
2024-05-09T10:31:44.215Z,13.37
2024-05-09T10:34:22.196Z,12.27
2024-05-09T10:36:55.739Z,12.65
2024-05-09T10:39:22.835Z,11.90
2024-05-09T10:41:49.790Z,12.05
2024-05-09T10:44:17.486Z,11.73
2024-05-09T10:46:47.750Z,11.18
2024-05-09T10:49:15.062Z,12.15
2024-05-09T10:51:44.342Z,11.18
2024-05-09T10:54:11.330Z,11.98
2024-05-09T10:56:38.029Z,11.83
2024-05-09T10:59:05.170Z,13.32
2024-05-09T11:01:32.311Z,12.98
2024-05-09T11:03:59.268Z,12.95
2024-05-09T11:06:26.052Z,12.57
2024-05-09T11:08:52.938Z,13.83
2024-05-09T11:11:20.077Z,12.48
2024-05-09T11:13:46.732Z,12.10
2024-05-09T11:16:19.726Z,12.35
2024-05-09T11:18:55.116Z,12.88
2024-05-09T11:21:22.401Z,12.83
2024-05-09T11:23:49.066Z,12.77
2024-05-09T11:26:19.219Z,12.25
2024-05-09T11:28:46.294Z,11.10
2024-05-09T11:31:13.050Z,12.80
2024-05-09T11:33:42.214Z,13.63
2024-05-09T11:36:09.649Z,12.43
2024-05-09T11:38:36.431Z,10.98
2024-05-09T11:41:03.844Z,11.43
2024-05-09T11:43:30.638Z,9.95
2024-05-09T11:45:57.881Z,11.10
2024-05-09T11:48:25.985Z,10.70
2024-05-09T11:50:54.518Z,9.70
2024-05-09T11:53:21.148Z,10.70
2024-05-09T11:55:47.746Z,11.90
2024-05-09T11:58:17.145Z,11.77
2024-05-09T12:00:44.416Z,9.80
2024-05-09T12:03:11.249Z,10.70
2024-05-09T12:05:37.981Z,11.95
2024-05-09T12:08:05.008Z,11.30
2024-05-09T12:10:34.438Z,10.07
2024-05-09T12:13:04.970Z,12.32
2024-05-09T12:15:33.151Z,12.05
2024-05-09T12:18:02.838Z,10.77
2024-05-09T12:20:36.645Z,11.27
2024-05-09T12:37:38.078Z,9.50
2024-05-09T12:40:10.531Z,10.43
2024-05-09T12:42:42.283Z,12.73
2024-05-09T12:45:09.000Z,10.35
2024-05-09T12:47:35.779Z,10.10
2024-05-09T12:50:03.947Z,9.88
2024-05-09T13:03:57.335Z,11.87
2024-05-09T13:06:24.008Z,11.25
2024-05-09T13:08:50.689Z,11.27
2024-05-09T13:11:17.360Z,11.63
2024-05-09T13:13:44.544Z,13.00
2024-05-09T13:16:11.358Z,12.07
2024-05-09T13:18:38.076Z,10.90
2024-05-09T13:21:05.174Z,11.07
2024-05-09T13:23:31.726Z,10.20
2024-05-09T13:25:58.475Z,10.32
2024-05-09T13:28:25.248Z,9.00
2024-05-09T13:30:51.897Z,8.65
2024-05-09T13:33:18.773Z,8.00
2024-05-09T13:35:49.490Z,10.25
2024-05-09T13:38:21.342Z,10.65
2024-05-09T13:40:48.689Z,11.40
2024-05-09T13:54:32.439Z,13.30
2024-05-09T13:57:01.416Z,11.63
2024-05-09T13:59:27.962Z,9.95
2024-05-09T14:01:54.740Z,12.80
2024-05-09T14:04:21.487Z,11.85
2024-05-09T14:06:48.736Z,11.00
2024-05-09T14:09:15.584Z,11.07
2024-05-09T14:11:42.614Z,10.23
2024-05-09T14:14:09.190Z,10.00
2024-05-09T14:16:36.006Z,11.25
2024-05-09T14:19:03.291Z,10.32
2024-05-09T14:21:31.971Z,12.07
2024-05-09T14:24:01.136Z,11.80
2024-05-09T14:26:27.865Z,10.40
2024-05-09T14:28:54.537Z,9.68
2024-05-09T14:31:21.283Z,10.82
2024-05-09T14:33:48.092Z,11.63
2024-05-09T14:36:14.916Z,10.00
2024-05-09T14:38:41.663Z,10.05
2024-05-09T14:41:09.598Z,11.35
2024-05-09T14:43:36.260Z,11.02
2024-05-09T14:46:03.213Z,9.90
2024-05-09T14:48:30.082Z,10.70
2024-05-09T14:50:56.790Z,10.38
2024-05-09T14:53:27.067Z,10.20
2024-05-09T14:55:54.030Z,11.90
2024-05-09T14:58:20.867Z,12.13
2024-05-09T15:00:50.384Z,14.10
2024-05-09T15:03:19.871Z,12.98
2024-05-09T15:05:47.848Z,11.50
2024-05-09T15:08:17.342Z,14.43
2024-05-09T15:10:44.163Z,12.53
2024-05-09T15:13:13.244Z,11.50
2024-05-09T15:15:41.910Z,11.90
2024-05-09T15:18:08.832Z,12.00
2024-05-09T15:20:37.101Z,11.55
2024-05-09T15:23:05.351Z,13.40
2024-05-09T15:25:36.392Z,12.90
2024-05-09T15:28:04.151Z,11.63
2024-05-09T15:30:33.179Z,11.27
2024-05-09T15:33:03.205Z,15.32
2024-05-09T15:35:29.969Z,13.37
2024-05-09T15:37:56.801Z,12.40
2024-05-09T15:40:34.417Z,11.55
2024-05-09T15:43:06.514Z,13.27
2024-05-09T15:45:34.465Z,12.98
2024-05-09T15:48:02.620Z,11.23
2024-05-09T15:50:36.925Z,10.45
2024-05-09T15:53:07.999Z,11.63
2024-05-09T15:55:35.548Z,12.63
2024-05-09T15:58:03.704Z,10.45
2024-05-09T16:00:37.832Z,10.70
2024-05-09T16:03:09.146Z,10.07
2024-05-09T16:05:36.609Z,10.85
2024-05-09T16:08:03.710Z,10.85
2024-05-09T16:10:33.115Z,10.75
2024-05-09T16:13:02.393Z,11.53
2024-05-09T16:15:29.812Z,12.63
2024-05-09T16:17:59.389Z,13.43
2024-05-09T16:20:34.803Z,17.58
2024-05-09T16:23:06.755Z,18.48
2024-05-09T16:25:33.542Z,18.70
2024-05-09T16:28:00.494Z,19.30
2024-05-09T16:30:34.259Z,19.65
2024-05-09T16:33:04.038Z,19.55
2024-05-09T16:35:31.559Z,20.00
2024-05-09T16:37:58.195Z,18.87
2024-05-09T16:40:34.483Z,19.15
2024-05-09T16:43:06.280Z,19.60
2024-05-09T16:45:33.352Z,18.63
2024-05-09T16:48:00.696Z,19.70
2024-05-09T16:50:32.600Z,19.70
2024-05-09T16:53:01.842Z,20.38
2024-05-09T16:55:28.744Z,18.52
2024-05-09T16:57:56.555Z,17.27
2024-05-09T17:00:34.864Z,17.80
2024-05-09T17:03:07.749Z,20.13
2024-05-09T17:05:35.534Z,17.40
2024-05-09T17:08:03.027Z,19.83
2024-05-09T17:10:33.543Z,21.38
2024-05-09T17:13:02.561Z,18.17
2024-05-09T17:15:29.869Z,18.97
2024-05-09T17:17:56.790Z,17.70
2024-05-09T17:20:31.315Z,20.23
2024-05-09T17:23:02.246Z,16.77
2024-05-09T17:25:29.212Z,18.25
2024-05-09T17:27:56.090Z,16.67
2024-05-09T17:30:29.142Z,17.98
2024-05-09T17:33:02.426Z,18.35
2024-05-09T17:35:29.299Z,18.80
2024-05-09T17:37:56.545Z,17.38
2024-05-09T17:40:30.575Z,18.03
2024-05-09T17:43:00.904Z,17.48
2024-05-09T17:45:27.527Z,17.98
2024-05-09T17:47:54.403Z,17.73
2024-05-09T17:50:27.547Z,18.77
2024-05-09T17:53:00.730Z,17.73
2024-05-09T17:55:27.594Z,18.00
2024-05-09T17:57:54.452Z,16.17
2024-05-09T18:00:29.313Z,19.05
2024-05-09T18:03:04.546Z,17.73
2024-05-09T18:05:31.589Z,17.20
2024-05-09T18:07:58.724Z,17.60
2024-05-09T18:10:30.059Z,17.20
2024-05-09T18:13:02.663Z,19.73
2024-05-09T18:15:29.346Z,17.45
2024-05-09T18:17:56.158Z,18.67
2024-05-09T18:20:32.746Z,16.33
2024-05-09T18:23:07.634Z,18.42
2024-05-09T18:25:34.568Z,18.90
2024-05-09T18:28:05.624Z,18.40
2024-05-09T18:30:35.427Z,18.53
2024-05-09T18:33:05.927Z,18.65
2024-05-09T18:35:33.958Z,16.45
2024-05-09T18:38:00.741Z,17.70
2024-05-09T18:40:34.057Z,17.60
2024-05-09T18:43:05.531Z,17.13
2024-05-09T18:45:33.666Z,16.33
2024-05-09T18:48:00.680Z,17.92
2024-05-09T18:50:34.952Z,19.08
2024-05-09T18:53:08.952Z,17.30
2024-05-09T18:55:35.978Z,15.53
2024-05-09T18:58:04.508Z,16.40
2024-05-09T19:00:35.801Z,15.98
2024-05-09T19:03:09.466Z,15.98
2024-05-09T19:05:38.866Z,17.75
2024-05-09T19:08:07.296Z,17.77
2024-05-09T19:10:35.519Z,16.85
2024-05-09T19:13:07.996Z,16.95
2024-05-09T19:15:38.578Z,17.50
2024-05-09T19:18:06.177Z,17.90
2024-05-09T19:20:35.253Z,17.47
2024-05-09T19:23:03.662Z,16.90
2024-05-09T19:25:30.463Z,14.88
2024-05-09T19:27:57.156Z,17.85
2024-05-09T19:30:32.885Z,15.77
2024-05-09T19:33:05.867Z,15.30
2024-05-09T19:35:32.924Z,15.57
2024-05-09T19:37:59.786Z,16.30
2024-05-09T19:40:31.399Z,17.20
2024-05-09T19:43:01.159Z,16.48
2024-05-09T19:45:28.193Z,15.87
2024-05-09T19:47:55.213Z,16.65
2024-05-09T19:50:30.314Z,17.17
2024-05-09T19:53:03.276Z,16.13
2024-05-09T19:55:30.033Z,16.67
2024-05-09T19:57:57.073Z,16.73
2024-05-09T20:00:32.457Z,17.40
2024-05-09T20:03:02.872Z,16.00
2024-05-09T20:05:33.286Z,17.02
2024-05-09T20:08:00.196Z,14.63
2024-05-09T20:10:31.735Z,16.30
2024-05-09T20:13:00.732Z,16.38
2024-05-09T20:15:27.432Z,16.88
2024-05-09T20:17:54.670Z,16.90
2024-05-09T20:20:32.172Z,15.27
2024-05-09T20:23:04.021Z,15.77
2024-05-09T20:25:30.767Z,17.05
2024-05-09T20:27:57.580Z,16.13
2024-05-09T20:30:31.279Z,17.00
2024-05-09T20:33:00.558Z,16.67
2024-05-09T20:35:30.545Z,17.30
2024-05-09T20:37:57.257Z,20.02
2024-05-09T20:40:29.216Z,19.00
2024-05-09T20:43:00.367Z,17.70
2024-05-09T20:45:27.133Z,17.27
2024-05-09T20:47:53.949Z,17.17
2024-05-09T20:50:28.935Z,17.73
2024-05-09T20:53:03.718Z,17.85
2024-05-09T20:55:30.545Z,18.83
2024-05-09T20:57:57.850Z,17.92
2024-05-09T21:00:34.348Z,17.60
2024-05-09T21:03:06.802Z,21.00
2024-05-09T21:05:34.952Z,22.10
2024-05-09T21:08:02.165Z,20.92
2024-05-09T21:10:32.826Z,23.33
2024-05-09T21:13:01.152Z,21.37
2024-05-09T21:15:28.075Z,22.48
2024-05-09T21:17:54.709Z,21.92
2024-05-09T21:20:28.264Z,23.73
2024-05-09T21:22:58.293Z,21.80
2024-05-09T21:25:24.915Z,22.33
2024-05-09T21:27:51.738Z,22.58
2024-05-09T21:30:27.870Z,25.38
2024-05-09T21:33:04.672Z,23.02
2024-05-09T21:35:31.507Z,20.40
2024-05-09T21:37:58.042Z,22.33
2024-05-09T21:40:31.560Z,21.55
2024-05-09T21:43:01.587Z,22.33
2024-05-09T21:45:28.346Z,24.17
2024-05-09T21:47:55.308Z,23.42
2024-05-09T21:50:28.747Z,20.83
2024-05-09T21:53:03.546Z,23.48
2024-05-09T21:55:30.254Z,22.58
2024-05-09T21:57:57.062Z,23.45
2024-05-09T22:00:32.051Z,24.50
2024-05-09T22:03:03.497Z,22.20
2024-05-09T22:05:30.728Z,27.25
2024-05-09T22:07:57.518Z,24.08
2024-05-09T22:10:30.597Z,23.27
2024-05-09T22:13:00.934Z,24.60
2024-05-09T22:15:27.664Z,26.30
2024-05-09T22:17:56.436Z,24.38
2024-05-09T22:20:32.857Z,24.95
2024-05-09T22:23:03.914Z,24.45
2024-05-09T22:25:31.725Z,24.38
2024-05-09T22:27:59.101Z,23.80
2024-05-09T22:30:34.304Z,25.40
2024-05-09T22:33:05.672Z,23.40
2024-05-09T22:35:32.662Z,25.67
2024-05-09T22:37:59.226Z,25.27
2024-05-09T22:40:38.011Z,25.27
2024-05-09T22:43:12.751Z,24.65
2024-05-09T22:45:39.730Z,26.83
2024-05-09T22:48:07.996Z,25.17
2024-05-09T22:50:34.893Z,28.63
2024-05-09T22:53:01.734Z,25.73
2024-05-09T22:55:28.637Z,27.23
2024-05-09T22:57:55.527Z,28.40
2024-05-09T23:00:30.838Z,24.83
2024-05-09T23:03:00.076Z,26.00
2024-05-09T23:05:27.173Z,27.37
2024-05-09T23:07:53.849Z,28.45
2024-05-09T23:10:27.760Z,27.67
2024-05-09T23:12:59.342Z,28.30
2024-05-09T23:15:26.057Z,29.02
2024-05-09T23:17:52.863Z,27.87
2024-05-09T23:20:29.860Z,28.70
2024-05-09T23:23:03.792Z,27.77
2024-05-09T23:25:30.435Z,30.17
2024-05-09T23:27:57.157Z,27.17
2024-05-09T23:30:33.338Z,29.30
2024-05-09T23:33:04.822Z,28.55
2024-05-09T23:35:31.669Z,27.65
2024-05-09T23:37:58.234Z,29.67
2024-05-09T23:40:36.354Z,27.85
2024-05-09T23:43:06.531Z,32.53
2024-05-09T23:45:33.363Z,31.00
2024-05-09T23:48:00.301Z,31.13
2024-05-09T23:50:34.123Z,29.05
2024-05-09T23:53:04.019Z,31.13
2024-05-09T23:55:31.425Z,28.63
2024-05-09T23:57:58.290Z,28.75
